sensor_id;sensor_type;location;lat;lon;timestamp;temperature;humidity
35692;DHT22;26978;44.830;-0.674;2022-11-20T00:01:31;4.80;99.90
35692;DHT22;26978;44.830;-0.674;2022-11-20T00:03:57;4.70;99.90
35692;DHT22;26978;44.830;-0.674;2022-11-20T00:06:23;4.70;99.90
35692;DHT22;26978;44.830;-0.674;2022-11-20T00:08:49;4.80;99.90
35692;DHT22;26978;44.830;-0.674;2022-11-20T00:11:19;4.80;99.90
35692;DHT22;26978;44.830;-0.674;2022-11-20T00:13:45;4.70;99.90
35692;DHT22;26978;44.830;-0.674;2022-11-20T00:16:12;4.70;99.90
35692;DHT22;26978;44.830;-0.674;2022-11-20T00:18:38;4.70;99.90
35692;DHT22;26978;44.830;-0.674;2022-11-20T00:21:05;4.60;99.90
35692;DHT22;26978;44.830;-0.674;2022-11-20T00:23:31;4.60;99.90
35692;DHT22;26978;44.830;-0.674;2022-11-20T00:25:56;4.60;99.90
35692;DHT22;26978;44.830;-0.674;2022-11-20T00:28:25;4.60;99.90
35692;DHT22;26978;44.830;-0.674;2022-11-20T00:30:51;4.70;99.90
35692;DHT22;26978;44.830;-0.674;2022-11-20T00:33:16;4.70;99.90
35692;DHT22;26978;44.830;-0.674;2022-11-20T00:35:42;4.70;99.90
35692;DHT22;26978;44.830;-0.674;2022-11-20T00:38:07;4.70;99.90
35692;DHT22;26978;44.830;-0.674;2022-11-20T00:40:33;4.60;99.90
35692;DHT22;26978;44.830;-0.674;2022-11-20T00:42:58;4.70;99.90
35692;DHT22;26978;44.830;-0.674;2022-11-20T00:45:24;4.60;99.90
35692;DHT22;26978;44.830;-0.674;2022-11-20T00:47:50;4.60;99.90
35692;DHT22;26978;44.830;-0.674;2022-11-20T00:50:15;4.60;99.90
35692;DHT22;26978;44.830;-0.674;2022-11-20T00:52:41;4.60;99.90
35692;DHT22;26978;44.830;-0.674;2022-11-20T00:55:06;4.50;99.90
35692;DHT22;26978;44.830;-0.674;2022-11-20T00:57:32;4.50;99.90
35692;DHT22;26978;44.830;-0.674;2022-11-20T00:59:57;4.50;99.90
35692;DHT22;26978;44.830;-0.674;2022-11-20T01:02:23;4.50;99.90
35692;DHT22;26978;44.830;-0.674;2022-11-20T01:04:48;4.40;99.90
35692;DHT22;26978;44.830;-0.674;2022-11-20T01:07:14;4.40;99.90
35692;DHT22;26978;44.830;-0.674;2022-11-20T01:09:40;4.40;99.90
35692;DHT22;26978;44.830;-0.674;2022-11-20T01:12:05;4.40;99.90
35692;DHT22;26978;44.830;-0.674;2022-11-20T01:14:31;4.40;99.90
35692;DHT22;26978;44.830;-0.674;2022-11-20T01:16:56;4.40;99.90
35692;DHT22;26978;44.830;-0.674;2022-11-20T01:19:22;4.40;99.90
35692;DHT22;26978;44.830;-0.674;2022-11-20T01:21:49;4.40;99.90
35692;DHT22;26978;44.830;-0.674;2022-11-20T01:24:16;4.30;99.90
35692;DHT22;26978;44.830;-0.674;2022-11-20T01:26:42;4.40;99.90
35692;DHT22;26978;44.830;-0.674;2022-11-20T01:29:10;4.40;99.90
35692;DHT22;26978;44.830;-0.674;2022-11-20T01:31:37;4.50;99.90
35692;DHT22;26978;44.830;-0.674;2022-11-20T01:34:06;4.50;99.90
35692;DHT22;26978;44.830;-0.674;2022-11-20T01:36:33;4.60;99.90
35692;DHT22;26978;44.830;-0.674;2022-11-20T01:38:59;4.70;99.90
35692;DHT22;26978;44.830;-0.674;2022-11-20T01:41:26;4.90;99.90
35692;DHT22;26978;44.830;-0.674;2022-11-20T01:44:11;5.00;99.90
35692;DHT22;26978;44.830;-0.674;2022-11-20T01:46:42;5.00;99.90
35692;DHT22;26978;44.830;-0.674;2022-11-20T01:49:18;5.10;99.90
35692;DHT22;26978;44.830;-0.674;2022-11-20T01:51:45;5.20;99.90
35692;DHT22;26978;44.830;-0.674;2022-11-20T01:54:17;5.20;99.90
35692;DHT22;26978;44.830;-0.674;2022-11-20T01:56:44;5.20;99.90
35692;DHT22;26978;44.830;-0.674;2022-11-20T01:59:11;5.30;99.90
35692;DHT22;26978;44.830;-0.674;2022-11-20T02:01:38;5.40;99.90
35692;DHT22;26978;44.830;-0.674;2022-11-20T02:04:04;5.50;99.90
35692;DHT22;26978;44.830;-0.674;2022-11-20T02:06:32;5.60;99.90
35692;DHT22;26978;44.830;-0.674;2022-11-20T02:09:00;5.60;99.90
35692;DHT22;26978;44.830;-0.674;2022-11-20T02:11:26;5.60;99.90
35692;DHT22;26978;44.830;-0.674;2022-11-20T02:13:51;5.60;99.90
35692;DHT22;26978;44.830;-0.674;2022-11-20T02:18:43;5.60;99.90
35692;DHT22;26978;44.830;-0.674;2022-11-20T02:21:13;5.40;99.90
35692;DHT22;26978;44.830;-0.674;2022-11-20T02:26:24;5.40;99.90
35692;DHT22;26978;44.830;-0.674;2022-11-20T02:28:51;5.40;99.90
35692;DHT22;26978;44.830;-0.674;2022-11-20T02:31:17;5.50;99.90
35692;DHT22;26978;44.830;-0.674;2022-11-20T02:33:42;5.50;99.90
35692;DHT22;26978;44.830;-0.674;2022-11-20T02:36:08;5.60;99.90
35692;DHT22;26978;44.830;-0.674;2022-11-20T02:38:36;5.60;99.90
35692;DHT22;26978;44.830;-0.674;2022-11-20T02:41:02;5.70;99.90
35692;DHT22;26978;44.830;-0.674;2022-11-20T02:43:28;5.80;99.90
35692;DHT22;26978;44.830;-0.674;2022-11-20T02:45:53;5.90;99.90
35692;DHT22;26978;44.830;-0.674;2022-11-20T02:48:19;5.90;99.90
35692;DHT22;26978;44.830;-0.674;2022-11-20T02:50:44;5.90;99.90
35692;DHT22;26978;44.830;-0.674;2022-11-20T02:53:10;5.90;99.90
35692;DHT22;26978;44.830;-0.674;2022-11-20T02:55:35;6.00;99.90
35692;DHT22;26978;44.830;-0.674;2022-11-20T02:58:01;6.00;99.90
35692;DHT22;26978;44.830;-0.674;2022-11-20T03:00:27;6.00;99.90
35692;DHT22;26978;44.830;-0.674;2022-11-20T03:02:52;6.10;99.90
35692;DHT22;26978;44.830;-0.674;2022-11-20T03:05:18;6.10;99.90
35692;DHT22;26978;44.830;-0.674;2022-11-20T03:07:43;6.20;99.90
35692;DHT22;26978;44.830;-0.674;2022-11-20T03:10:09;6.20;99.90
35692;DHT22;26978;44.830;-0.674;2022-11-20T03:12:35;6.30;99.90
35692;DHT22;26978;44.830;-0.674;2022-11-20T03:15:00;6.30;99.90
35692;DHT22;26978;44.830;-0.674;2022-11-20T03:17:26;6.30;99.90
35692;DHT22;26978;44.830;-0.674;2022-11-20T03:19:51;6.40;99.90
35692;DHT22;26978;44.830;-0.674;2022-11-20T03:22:17;6.50;99.90
35692;DHT22;26978;44.830;-0.674;2022-11-20T03:24:42;6.60;99.90
35692;DHT22;26978;44.830;-0.674;2022-11-20T03:27:08;6.60;99.90
35692;DHT22;26978;44.830;-0.674;2022-11-20T03:29:34;6.60;99.90
35692;DHT22;26978;44.830;-0.674;2022-11-20T03:32:00;6.70;99.90
35692;DHT22;26978;44.830;-0.674;2022-11-20T03:34:25;6.70;99.90
35692;DHT22;26978;44.830;-0.674;2022-11-20T03:36:51;6.70;99.90
35692;DHT22;26978;44.830;-0.674;2022-11-20T03:39:16;6.70;99.90
35692;DHT22;26978;44.830;-0.674;2022-11-20T03:41:42;6.80;99.90
35692;DHT22;26978;44.830;-0.674;2022-11-20T03:44:09;6.70;99.90
35692;DHT22;26978;44.830;-0.674;2022-11-20T03:46:35;6.80;99.90
35692;DHT22;26978;44.830;-0.674;2022-11-20T03:49:00;6.80;99.90
35692;DHT22;26978;44.830;-0.674;2022-11-20T03:51:27;6.90;99.90
35692;DHT22;26978;44.830;-0.674;2022-11-20T03:53:53;6.90;99.90
35692;DHT22;26978;44.830;-0.674;2022-11-20T03:56:21;6.90;99.90
35692;DHT22;26978;44.830;-0.674;2022-11-20T03:58:47;6.90;99.90
35692;DHT22;26978;44.830;-0.674;2022-11-20T04:01:17;6.90;99.90
35692;DHT22;26978;44.830;-0.674;2022-11-20T04:03:43;7.00;99.90
35692;DHT22;26978;44.830;-0.674;2022-11-20T04:08:34;6.90;99.90
35692;DHT22;26978;44.830;-0.674;2022-11-20T04:11:10;7.00;99.90
35692;DHT22;26978;44.830;-0.674;2022-11-20T04:13:36;7.00;99.90
35692;DHT22;26978;44.830;-0.674;2022-11-20T04:16:01;7.00;99.90
35692;DHT22;26978;44.830;-0.674;2022-11-20T04:18:27;7.10;99.90
35692;DHT22;26978;44.830;-0.674;2022-11-20T04:20:52;7.10;99.90
35692;DHT22;26978;44.830;-0.674;2022-11-20T04:23:18;7.20;99.90
35692;DHT22;26978;44.830;-0.674;2022-11-20T04:25:43;7.20;99.90
35692;DHT22;26978;44.830;-0.674;2022-11-20T04:28:09;7.30;99.90
35692;DHT22;26978;44.830;-0.674;2022-11-20T04:30:34;7.20;99.90
35692;DHT22;26978;44.830;-0.674;2022-11-20T04:33:00;7.30;99.90
35692;DHT22;26978;44.830;-0.674;2022-11-20T04:35:25;7.30;99.90
35692;DHT22;26978;44.830;-0.674;2022-11-20T04:37:51;7.30;99.90
35692;DHT22;26978;44.830;-0.674;2022-11-20T04:40:17;7.30;99.90
35692;DHT22;26978;44.830;-0.674;2022-11-20T04:42:42;7.30;99.90
35692;DHT22;26978;44.830;-0.674;2022-11-20T04:45:08;7.30;99.90
35692;DHT22;26978;44.830;-0.674;2022-11-20T04:47:34;7.30;99.90
35692;DHT22;26978;44.830;-0.674;2022-11-20T04:49:59;7.30;99.90
35692;DHT22;26978;44.830;-0.674;2022-11-20T04:52:25;7.30;99.90
35692;DHT22;26978;44.830;-0.674;2022-11-20T04:54:50;7.30;99.90
35692;DHT22;26978;44.830;-0.674;2022-11-20T04:57:18;7.40;99.90
35692;DHT22;26978;44.830;-0.674;2022-11-20T04:59:43;7.40;99.90
35692;DHT22;26978;44.830;-0.674;2022-11-20T05:02:09;7.40;99.90
35692;DHT22;26978;44.830;-0.674;2022-11-20T05:04:35;7.40;99.90
35692;DHT22;26978;44.830;-0.674;2022-11-20T05:07:00;7.40;99.90
35692;DHT22;26978;44.830;-0.674;2022-11-20T05:09:26;7.50;99.90
35692;DHT22;26978;44.830;-0.674;2022-11-20T05:11:51;7.50;99.90
35692;DHT22;26978;44.830;-0.674;2022-11-20T05:14:17;7.50;99.90
35692;DHT22;26978;44.830;-0.674;2022-11-20T05:16:43;7.50;99.90
35692;DHT22;26978;44.830;-0.674;2022-11-20T05:19:08;7.60;99.90
35692;DHT22;26978;44.830;-0.674;2022-11-20T05:21:34;7.60;99.90
35692;DHT22;26978;44.830;-0.674;2022-11-20T05:23:59;7.60;99.90
35692;DHT22;26978;44.830;-0.674;2022-11-20T05:26:25;7.60;99.90
35692;DHT22;26978;44.830;-0.674;2022-11-20T05:28:50;7.70;99.90
35692;DHT22;26978;44.830;-0.674;2022-11-20T05:31:18;7.60;99.90
35692;DHT22;26978;44.830;-0.674;2022-11-20T05:33:44;7.60;99.90
35692;DHT22;26978;44.830;-0.674;2022-11-20T05:36:10;7.60;99.90
35692;DHT22;26978;44.830;-0.674;2022-11-20T05:38:35;7.60;99.90
35692;DHT22;26978;44.830;-0.674;2022-11-20T05:41:08;7.60;99.90
35692;DHT22;26978;44.830;-0.674;2022-11-20T05:43:34;7.60;99.90
35692;DHT22;26978;44.830;-0.674;2022-11-20T05:46:00;7.60;99.90
35692;DHT22;26978;44.830;-0.674;2022-11-20T05:48:25;7.60;99.90
35692;DHT22;26978;44.830;-0.674;2022-11-20T05:50:51;7.60;99.90
35692;DHT22;26978;44.830;-0.674;2022-11-20T05:53:16;7.60;99.90
35692;DHT22;26978;44.830;-0.674;2022-11-20T05:55:42;7.60;99.90
35692;DHT22;26978;44.830;-0.674;2022-11-20T05:58:07;7.60;99.90
35692;DHT22;26978;44.830;-0.674;2022-11-20T06:00:33;7.60;99.90
35692;DHT22;26978;44.830;-0.674;2022-11-20T06:02:59;7.60;99.90
35692;DHT22;26978;44.830;-0.674;2022-11-20T06:05:24;7.70;99.90
35692;DHT22;26978;44.830;-0.674;2022-11-20T06:07:50;7.70;99.90
35692;DHT22;26978;44.830;-0.674;2022-11-20T06:10:15;7.70;99.90
35692;DHT22;26978;44.830;-0.674;2022-11-20T06:12:41;7.60;99.90
35692;DHT22;26978;44.830;-0.674;2022-11-20T06:15:06;7.60;99.90
35692;DHT22;26978;44.830;-0.674;2022-11-20T06:17:32;7.60;99.90
35692;DHT22;26978;44.830;-0.674;2022-11-20T06:19:58;7.60;99.90
35692;DHT22;26978;44.830;-0.674;2022-11-20T06:22:23;7.50;99.90
35692;DHT22;26978;44.830;-0.674;2022-11-20T06:24:49;7.40;99.90
35692;DHT22;26978;44.830;-0.674;2022-11-20T06:27:15;7.30;99.90
35692;DHT22;26978;44.830;-0.674;2022-11-20T06:29:40;7.20;99.90
35692;DHT22;26978;44.830;-0.674;2022-11-20T06:32:06;7.30;99.90
35692;DHT22;26978;44.830;-0.674;2022-11-20T06:34:31;7.20;99.90
35692;DHT22;26978;44.830;-0.674;2022-11-20T06:36:57;7.30;99.90
35692;DHT22;26978;44.830;-0.674;2022-11-20T06:39:22;7.30;99.90
35692;DHT22;26978;44.830;-0.674;2022-11-20T06:41:48;7.40;99.90
35692;DHT22;26978;44.830;-0.674;2022-11-20T06:44:13;7.50;99.90
35692;DHT22;26978;44.830;-0.674;2022-11-20T06:46:39;7.50;99.90
35692;DHT22;26978;44.830;-0.674;2022-11-20T06:49:04;7.60;99.90
35692;DHT22;26978;44.830;-0.674;2022-11-20T06:51:31;7.60;99.90
35692;DHT22;26978;44.830;-0.674;2022-11-20T06:53:57;7.70;99.90
35692;DHT22;26978;44.830;-0.674;2022-11-20T06:56:22;7.60;99.90
35692;DHT22;26978;44.830;-0.674;2022-11-20T06:58:48;7.70;99.90
35692;DHT22;26978;44.830;-0.674;2022-11-20T07:01:14;7.70;99.90
35692;DHT22;26978;44.830;-0.674;2022-11-20T07:03:40;7.80;99.90
35692;DHT22;26978;44.830;-0.674;2022-11-20T07:06:06;7.70;99.90
35692;DHT22;26978;44.830;-0.674;2022-11-20T07:08:32;7.80;99.90
35692;DHT22;26978;44.830;-0.674;2022-11-20T07:11:01;7.80;99.90
35692;DHT22;26978;44.830;-0.674;2022-11-20T07:13:27;7.80;99.90
35692;DHT22;26978;44.830;-0.674;2022-11-20T07:15:53;7.80;99.90
35692;DHT22;26978;44.830;-0.674;2022-11-20T07:18:19;7.80;99.90
35692;DHT22;26978;44.830;-0.674;2022-11-20T07:20:44;7.90;99.90
35692;DHT22;26978;44.830;-0.674;2022-11-20T07:23:10;7.90;99.90
35692;DHT22;26978;44.830;-0.674;2022-11-20T07:25:35;8.00;99.90
35692;DHT22;26978;44.830;-0.674;2022-11-20T07:28:01;8.00;99.90
35692;DHT22;26978;44.830;-0.674;2022-11-20T07:30:30;8.00;99.90
35692;DHT22;26978;44.830;-0.674;2022-11-20T07:32:56;8.10;99.90
35692;DHT22;26978;44.830;-0.674;2022-11-20T07:35:22;8.10;99.90
35692;DHT22;26978;44.830;-0.674;2022-11-20T07:37:48;8.20;99.90
35692;DHT22;26978;44.830;-0.674;2022-11-20T07:40:14;8.20;99.90
35692;DHT22;26978;44.830;-0.674;2022-11-20T07:42:46;8.20;99.90
35692;DHT22;26978;44.830;-0.674;2022-11-20T07:45:12;8.30;99.90
35692;DHT22;26978;44.830;-0.674;2022-11-20T07:47:37;8.30;99.90
35692;DHT22;26978;44.830;-0.674;2022-11-20T07:50:03;8.40;99.90
35692;DHT22;26978;44.830;-0.674;2022-11-20T07:52:28;8.40;99.90
35692;DHT22;26978;44.830;-0.674;2022-11-20T07:54:54;8.50;99.90
35692;DHT22;26978;44.830;-0.674;2022-11-20T07:57:19;8.50;99.90
35692;DHT22;26978;44.830;-0.674;2022-11-20T07:59:45;8.60;99.90
35692;DHT22;26978;44.830;-0.674;2022-11-20T08:02:11;8.60;99.90
35692;DHT22;26978;44.830;-0.674;2022-11-20T08:04:36;8.70;99.90
35692;DHT22;26978;44.830;-0.674;2022-11-20T08:07:02;8.60;99.90
35692;DHT22;26978;44.830;-0.674;2022-11-20T08:09:27;8.70;99.90
35692;DHT22;26978;44.830;-0.674;2022-11-20T08:11:54;8.80;99.90
35692;DHT22;26978;44.830;-0.674;2022-11-20T08:14:38;8.90;99.90
35692;DHT22;26978;44.830;-0.674;2022-11-20T08:17:04;8.80;99.90
35692;DHT22;26978;44.830;-0.674;2022-11-20T08:19:29;8.80;99.90
35692;DHT22;26978;44.830;-0.674;2022-11-20T08:21:55;8.90;99.90
35692;DHT22;26978;44.830;-0.674;2022-11-20T08:24:20;9.00;99.90
35692;DHT22;26978;44.830;-0.674;2022-11-20T08:26:46;9.00;99.90
35692;DHT22;26978;44.830;-0.674;2022-11-20T08:29:11;9.10;99.90
35692;DHT22;26978;44.830;-0.674;2022-11-20T08:31:37;9.10;99.90
35692;DHT22;26978;44.830;-0.674;2022-11-20T08:34:03;9.20;99.90
35692;DHT22;26978;44.830;-0.674;2022-11-20T08:36:32;9.30;99.90
35692;DHT22;26978;44.830;-0.674;2022-11-20T08:38:58;9.30;99.90
35692;DHT22;26978;44.830;-0.674;2022-11-20T08:41:23;9.30;99.90
35692;DHT22;26978;44.830;-0.674;2022-11-20T08:43:59;9.40;99.90
35692;DHT22;26978;44.830;-0.674;2022-11-20T08:46:26;9.40;99.90
35692;DHT22;26978;44.830;-0.674;2022-11-20T08:48:52;9.50;99.90
35692;DHT22;26978;44.830;-0.674;2022-11-20T08:51:18;9.60;99.90
35692;DHT22;26978;44.830;-0.674;2022-11-20T08:53:43;9.60;99.90
35692;DHT22;26978;44.830;-0.674;2022-11-20T08:56:09;9.70;99.90
35692;DHT22;26978;44.830;-0.674;2022-11-20T08:58:35;9.70;99.90
35692;DHT22;26978;44.830;-0.674;2022-11-20T09:01:01;9.80;99.90
35692;DHT22;26978;44.830;-0.674;2022-11-20T09:03:26;9.90;99.90
35692;DHT22;26978;44.830;-0.674;2022-11-20T09:06:02;10.00;99.90
35692;DHT22;26978;44.830;-0.674;2022-11-20T09:08:28;10.10;99.90
35692;DHT22;26978;44.830;-0.674;2022-11-20T09:10:54;10.20;99.90
35692;DHT22;26978;44.830;-0.674;2022-11-20T09:13:21;10.30;99.90
35692;DHT22;26978;44.830;-0.674;2022-11-20T09:15:46;10.50;99.90
35692;DHT22;26978;44.830;-0.674;2022-11-20T09:18:12;10.50;99.90
35692;DHT22;26978;44.830;-0.674;2022-11-20T09:20:37;10.50;99.90
35692;DHT22;26978;44.830;-0.674;2022-11-20T09:23:03;10.50;99.90
35692;DHT22;26978;44.830;-0.674;2022-11-20T09:25:29;10.50;99.90
35692;DHT22;26978;44.830;-0.674;2022-11-20T09:27:55;10.50;99.90
35692;DHT22;26978;44.830;-0.674;2022-11-20T09:30:20;10.50;99.90
35692;DHT22;26978;44.830;-0.674;2022-11-20T09:32:46;10.50;99.90
35692;DHT22;26978;44.830;-0.674;2022-11-20T09:35:11;10.70;99.90
35692;DHT22;26978;44.830;-0.674;2022-11-20T09:37:37;10.70;99.90
35692;DHT22;26978;44.830;-0.674;2022-11-20T09:40:03;10.80;99.90
35692;DHT22;26978;44.830;-0.674;2022-11-20T09:45:15;10.70;99.90
35692;DHT22;26978;44.830;-0.674;2022-11-20T09:50:29;10.60;99.90
35692;DHT22;26978;44.830;-0.674;2022-11-20T09:55:22;10.70;99.90
35692;DHT22;26978;44.830;-0.674;2022-11-20T09:57:48;10.70;99.90
35692;DHT22;26978;44.830;-0.674;2022-11-20T10:00:16;10.70;99.90
35692;DHT22;26978;44.830;-0.674;2022-11-20T10:07:51;10.90;99.90
35692;DHT22;26978;44.830;-0.674;2022-11-20T10:10:38;10.80;99.90
35692;DHT22;26978;44.830;-0.674;2022-11-20T10:13:25;10.90;99.90
35692;DHT22;26978;44.830;-0.674;2022-11-20T10:16:03;11.10;99.90
35692;DHT22;26978;44.830;-0.674;2022-11-20T10:26:25;11.10;99.90
35692;DHT22;26978;44.830;-0.674;2022-11-20T10:31:37;11.20;99.90
35692;DHT22;26978;44.830;-0.674;2022-11-20T10:34:06;11.20;99.90
35692;DHT22;26978;44.830;-0.674;2022-11-20T10:36:39;11.30;99.90
35692;DHT22;26978;44.830;-0.674;2022-11-20T10:39:11;11.40;99.90
35692;DHT22;26978;44.830;-0.674;2022-11-20T10:41:42;11.50;99.90
35692;DHT22;26978;44.830;-0.674;2022-11-20T10:44:12;11.50;99.90
35692;DHT22;26978;44.830;-0.674;2022-11-20T10:49:43;11.50;99.90
35692;DHT22;26978;44.830;-0.674;2022-11-20T11:00:05;11.80;99.90
35692;DHT22;26978;44.830;-0.674;2022-11-20T11:02:32;12.00;99.90
35692;DHT22;26978;44.830;-0.674;2022-11-20T11:05:24;12.10;99.90
35692;DHT22;26978;44.830;-0.674;2022-11-20T11:07:50;12.20;99.90
35692;DHT22;26978;44.830;-0.674;2022-11-20T11:12:57;12.50;99.90
35692;DHT22;26978;44.830;-0.674;2022-11-20T11:17:52;12.80;99.90
35692;DHT22;26978;44.830;-0.674;2022-11-20T11:20:24;12.90;99.90
35692;DHT22;26978;44.830;-0.674;2022-11-20T11:22:54;13.00;99.90
35692;DHT22;26978;44.830;-0.674;2022-11-20T11:27:46;13.20;99.90
35692;DHT22;26978;44.830;-0.674;2022-11-20T11:30:14;13.30;99.90
35692;DHT22;26978;44.830;-0.674;2022-11-20T11:32:40;13.30;99.90
35692;DHT22;26978;44.830;-0.674;2022-11-20T11:35:06;13.40;99.90
35692;DHT22;26978;44.830;-0.674;2022-11-20T11:37:35;13.70;99.90
35692;DHT22;26978;44.830;-0.674;2022-11-20T11:40:02;13.80;99.90
35692;DHT22;26978;44.830;-0.674;2022-11-20T11:42:28;13.90;99.90
35692;DHT22;26978;44.830;-0.674;2022-11-20T11:44:54;14.00;99.90
35692;DHT22;26978;44.830;-0.674;2022-11-20T11:47:32;13.90;99.90
35692;DHT22;26978;44.830;-0.674;2022-11-20T11:55:13;14.10;99.90
35692;DHT22;26978;44.830;-0.674;2022-11-20T12:05:27;14.30;99.90
35692;DHT22;26978;44.830;-0.674;2022-11-20T12:07:52;14.30;99.90
35692;DHT22;26978;44.830;-0.674;2022-11-20T12:12:56;14.30;99.90
35692;DHT22;26978;44.830;-0.674;2022-11-20T12:15:28;14.30;99.90
35692;DHT22;26978;44.830;-0.674;2022-11-20T12:17:55;14.50;99.90
35692;DHT22;26978;44.830;-0.674;2022-11-20T12:20:21;14.40;99.90
35692;DHT22;26978;44.830;-0.674;2022-11-20T12:25:37;14.50;99.90
35692;DHT22;26978;44.830;-0.674;2022-11-20T12:30:41;14.60;99.90
35692;DHT22;26978;44.830;-0.674;2022-11-20T12:52:59;14.90;99.90
35692;DHT22;26978;44.830;-0.674;2022-11-20T13:00:24;14.70;99.90
35692;DHT22;26978;44.830;-0.674;2022-11-20T13:08:08;14.80;99.90
35692;DHT22;26978;44.830;-0.674;2022-11-20T13:10:43;14.80;99.90
35692;DHT22;26978;44.830;-0.674;2022-11-20T13:13:31;14.70;99.90
35692;DHT22;26978;44.830;-0.674;2022-11-20T13:16:00;14.60;99.90
35692;DHT22;26978;44.830;-0.674;2022-11-20T13:18:27;14.20;99.90
35692;DHT22;26978;44.830;-0.674;2022-11-20T13:20:54;13.70;99.90
35692;DHT22;26978;44.830;-0.674;2022-11-20T13:23:26;13.40;99.90
35692;DHT22;26978;44.830;-0.674;2022-11-20T13:28:36;13.20;99.90
35692;DHT22;26978;44.830;-0.674;2022-11-20T13:31:02;13.20;99.90
35692;DHT22;26978;44.830;-0.674;2022-11-20T13:33:31;13.30;99.90
35692;DHT22;26978;44.830;-0.674;2022-11-20T13:36:07;13.30;99.90
35692;DHT22;26978;44.830;-0.674;2022-11-20T13:38:44;13.40;99.90
35692;DHT22;26978;44.830;-0.674;2022-11-20T13:41:10;13.50;99.90
35692;DHT22;26978;44.830;-0.674;2022-11-20T13:43:54;13.60;99.90
35692;DHT22;26978;44.830;-0.674;2022-11-20T13:46:19;13.70;99.90
35692;DHT22;26978;44.830;-0.674;2022-11-20T13:48:49;13.70;99.90
35692;DHT22;26978;44.830;-0.674;2022-11-20T14:01:23;13.80;99.90
35692;DHT22;26978;44.830;-0.674;2022-11-20T14:03:49;13.70;99.90
35692;DHT22;26978;44.830;-0.674;2022-11-20T14:06:21;13.70;99.90
35692;DHT22;26978;44.830;-0.674;2022-11-20T14:08:49;13.70;99.90
35692;DHT22;26978;44.830;-0.674;2022-11-20T14:11:15;13.70;99.90
35692;DHT22;26978;44.830;-0.674;2022-11-20T14:14:47;13.70;99.90
35692;DHT22;26978;44.830;-0.674;2022-11-20T14:16:36;13.70;99.90
35692;DHT22;26978;44.830;-0.674;2022-11-20T14:21:43;13.70;99.90
35692;DHT22;26978;44.830;-0.674;2022-11-20T14:24:10;13.60;99.90
35692;DHT22;26978;44.830;-0.674;2022-11-20T14:26:36;13.60;99.90
35692;DHT22;26978;44.830;-0.674;2022-11-20T14:29:02;13.50;99.90
35692;DHT22;26978;44.830;-0.674;2022-11-20T14:31:28;13.40;99.90
35692;DHT22;26978;44.830;-0.674;2022-11-20T14:33:54;13.30;99.90
35692;DHT22;26978;44.830;-0.674;2022-11-20T14:36:20;13.00;99.90
35692;DHT22;26978;44.830;-0.674;2022-11-20T14:38:46;12.70;99.90
35692;DHT22;26978;44.830;-0.674;2022-11-20T14:41:20;12.50;99.90
35692;DHT22;26978;44.830;-0.674;2022-11-20T14:43:46;12.30;99.90
35692;DHT22;26978;44.830;-0.674;2022-11-20T14:46:12;12.20;99.90
35692;DHT22;26978;44.830;-0.674;2022-11-20T14:48:40;12.00;99.90
35692;DHT22;26978;44.830;-0.674;2022-11-20T14:51:09;11.90;99.90
35692;DHT22;26978;44.830;-0.674;2022-11-20T14:53:35;11.90;99.90
35692;DHT22;26978;44.830;-0.674;2022-11-20T14:56:01;11.90;99.90
35692;DHT22;26978;44.830;-0.674;2022-11-20T14:58:28;12.00;99.90
35692;DHT22;26978;44.830;-0.674;2022-11-20T15:00:58;12.00;99.90
35692;DHT22;26978;44.830;-0.674;2022-11-20T15:03:31;12.00;99.90
35692;DHT22;26978;44.830;-0.674;2022-11-20T15:05:56;12.20;99.90
35692;DHT22;26978;44.830;-0.674;2022-11-20T15:08:22;12.30;99.90
35692;DHT22;26978;44.830;-0.674;2022-11-20T15:10:48;12.40;99.90
35692;DHT22;26978;44.830;-0.674;2022-11-20T15:13:20;12.50;99.90
35692;DHT22;26978;44.830;-0.674;2022-11-20T15:15:52;12.40;99.90
35692;DHT22;26978;44.830;-0.674;2022-11-20T15:18:24;12.30;99.90
35692;DHT22;26978;44.830;-0.674;2022-11-20T15:20:51;12.20;99.90
35692;DHT22;26978;44.830;-0.674;2022-11-20T15:23:18;12.10;99.90
35692;DHT22;26978;44.830;-0.674;2022-11-20T15:25:44;12.00;99.90
35692;DHT22;26978;44.830;-0.674;2022-11-20T15:28:17;12.00;99.90
35692;DHT22;26978;44.830;-0.674;2022-11-20T15:30:44;12.00;99.90
35692;DHT22;26978;44.830;-0.674;2022-11-20T15:33:10;12.00;99.90
35692;DHT22;26978;44.830;-0.674;2022-11-20T15:35:35;12.00;99.90
35692;DHT22;26978;44.830;-0.674;2022-11-20T15:38:01;12.00;99.90
35692;DHT22;26978;44.830;-0.674;2022-11-20T15:40:26;12.10;99.90
35692;DHT22;26978;44.830;-0.674;2022-11-20T15:42:52;12.00;99.90
35692;DHT22;26978;44.830;-0.674;2022-11-20T15:45:36;12.00;99.90
35692;DHT22;26978;44.830;-0.674;2022-11-20T15:48:03;12.00;99.90
35692;DHT22;26978;44.830;-0.674;2022-11-20T15:50:39;12.00;99.90
35692;DHT22;26978;44.830;-0.674;2022-11-20T15:53:07;12.00;99.90
35692;DHT22;26978;44.830;-0.674;2022-11-20T15:55:33;12.00;99.90
35692;DHT22;26978;44.830;-0.674;2022-11-20T15:57:59;12.00;99.90
35692;DHT22;26978;44.830;-0.674;2022-11-20T16:00:24;11.90;99.90
35692;DHT22;26978;44.830;-0.674;2022-11-20T16:02:50;11.90;99.90
35692;DHT22;26978;44.830;-0.674;2022-11-20T16:05:15;11.90;99.90
35692;DHT22;26978;44.830;-0.674;2022-11-20T16:07:42;11.80;99.90
35692;DHT22;26978;44.830;-0.674;2022-11-20T16:10:08;11.90;99.90
35692;DHT22;26978;44.830;-0.674;2022-11-20T16:12:33;11.80;99.90
35692;DHT22;26978;44.830;-0.674;2022-11-20T16:15:37;11.70;99.90
35692;DHT22;26978;44.830;-0.674;2022-11-20T16:18:16;11.60;99.90
35692;DHT22;26978;44.830;-0.674;2022-11-20T16:20:43;11.50;99.90
35692;DHT22;26978;44.830;-0.674;2022-11-20T16:23:08;11.50;99.90
35692;DHT22;26978;44.830;-0.674;2022-11-20T16:25:34;11.40;99.90
35692;DHT22;26978;44.830;-0.674;2022-11-20T16:27:59;11.40;99.90
35692;DHT22;26978;44.830;-0.674;2022-11-20T16:30:26;11.30;99.90
35692;DHT22;26978;44.830;-0.674;2022-11-20T16:32:51;11.30;99.90
35692;DHT22;26978;44.830;-0.674;2022-11-20T16:35:17;11.20;99.90
35692;DHT22;26978;44.830;-0.674;2022-11-20T16:37:42;11.10;99.90
35692;DHT22;26978;44.830;-0.674;2022-11-20T16:40:08;11.00;99.90
35692;DHT22;26978;44.830;-0.674;2022-11-20T16:42:35;11.00;99.90
35692;DHT22;26978;44.830;-0.674;2022-11-20T16:45:00;11.10;99.90
35692;DHT22;26978;44.830;-0.674;2022-11-20T16:47:26;11.00;99.90
35692;DHT22;26978;44.830;-0.674;2022-11-20T16:49:52;10.90;99.90
35692;DHT22;26978;44.830;-0.674;2022-11-20T16:52:17;10.80;99.90
35692;DHT22;26978;44.830;-0.674;2022-11-20T16:54:43;10.70;99.90
35692;DHT22;26978;44.830;-0.674;2022-11-20T16:57:08;10.60;99.90
35692;DHT22;26978;44.830;-0.674;2022-11-20T16:59:34;10.60;99.90
35692;DHT22;26978;44.830;-0.674;2022-11-20T17:01:59;10.60;99.90
35692;DHT22;26978;44.830;-0.674;2022-11-20T17:04:25;10.60;99.90
35692;DHT22;26978;44.830;-0.674;2022-11-20T17:06:50;10.60;99.90
35692;DHT22;26978;44.830;-0.674;2022-11-20T17:09:16;10.60;99.90
35692;DHT22;26978;44.830;-0.674;2022-11-20T17:11:41;10.50;99.90
35692;DHT22;26978;44.830;-0.674;2022-11-20T17:14:07;10.60;99.90
35692;DHT22;26978;44.830;-0.674;2022-11-20T17:16:35;10.60;99.90
35692;DHT22;26978;44.830;-0.674;2022-11-20T17:19:00;10.50;99.90
35692;DHT22;26978;44.830;-0.674;2022-11-20T17:21:27;10.50;99.90